Time;durP1;ratioP1;P1;durP2;ratioP2;P2;SDS_P1;SDS_P2;PMS_P1;PMS_P2;Temp;Humidity;BMP_temperature;BMP_pressure;BME280_temperature;BME280_humidity;BME280_pressure;Samples;Min_cycle;Max_cycle;Signal;HPM_P1;HPM_P2
2023/11/17 00:01:55;;;;;;;6.13;3.50;;;3.70;99.90;;;;;;4938352;28;20054;-78
2023/11/17 00:04:43;;;;;;;6.55;4.40;;;3.70;99.90;;;;;;4946274;28;20046;-78
2023/11/17 00:07:31;;;;;;;7.03;3.88;;;3.70;99.90;;;;;;4930894;29;20048;-77
2023/11/17 00:10:18;;;;;;;7.43;3.92;;;3.60;99.90;;;;;;4931041;28;20035;-77
2023/11/17 00:13:05;;;;;;;6.23;3.97;;;3.60;99.90;;;;;;4920300;28;20089;-77
2023/11/17 00:15:55;;;;;;;5.63;3.70;;;3.50;99.90;;;;;;4951683;28;20270;-77
2023/11/17 00:18:42;;;;;;;5.28;3.80;;;3.60;99.90;;;;;;4946589;29;20031;-77
2023/11/17 00:21:28;;;;;;;6.40;3.80;;;3.50;99.90;;;;;;4944044;29;20550;-78
2023/11/17 00:24:15;;;;;;;6.03;4.45;;;3.50;99.90;;;;;;4920186;29;20089;-78
2023/11/17 00:27:03;;;;;;;8.15;4.22;;;3.50;99.90;;;;;;4913459;29;20111;-77
2023/11/17 00:29:49;;;;;;;;;;;3.50;99.90;;;;;;4901018;29;20094;-78
2023/11/17 00:32:35;;;;;;;10.80;6.53;;;3.50;99.90;;;;;;4907814;29;20612;-77
2023/11/17 00:35:22;;;;;;;14.77;8.20;;;3.50;99.90;;;;;;4907719;29;20775;-77
2023/11/17 00:38:08;;;;;;;15.60;7.88;;;3.60;99.90;;;;;;4902270;29;20051;-78
2023/11/17 00:40:54;;;;;;;12.02;6.80;;;3.60;99.90;;;;;;4907290;29;20377;-78
2023/11/17 00:43:40;;;;;;;10.25;5.75;;;3.60;99.90;;;;;;4928855;29;20043;-77
2023/11/17 00:46:29;;;;;;;8.85;4.32;;;3.60;99.90;;;;;;4911810;29;20066;-77
2023/11/17 00:49:16;;;;;;;;;;;3.60;99.90;;;;;;4930765;29;20184;-77
2023/11/17 00:52:05;;;;;;;6.50;3.60;;;3.60;99.90;;;;;;4906530;29;20252;-77
2023/11/17 00:54:55;;;;;;;7.20;4.28;;;3.60;99.90;;;;;;4887066;29;20473;-77
2023/11/17 00:57:44;;;;;;;8.43;4.18;;;3.60;99.90;;;;;;4896325;29;20050;-77
2023/11/17 01:00:32;;;;;;;8.60;4.60;;;3.60;99.90;;;;;;4929129;29;20051;-78
2023/11/17 01:03:20;;;;;;;5.97;4.10;;;3.50;99.90;;;;;;4898701;29;20516;-78
2023/11/17 01:06:08;;;;;;;6.78;4.20;;;3.60;99.90;;;;;;4919831;29;20044;-77
2023/11/17 01:08:54;;;;;;;10.40;4.80;;;3.60;99.90;;;;;;4920237;29;20039;-78
2023/11/17 01:11:41;;;;;;;7.75;4.07;;;3.70;99.90;;;;;;4918706;29;20386;-77
2023/11/17 01:14:30;;;;;;;6.80;3.80;;;3.70;99.90;;;;;;4904637;29;20078;-78
2023/11/17 01:17:18;;;;;;;6.57;4.10;;;3.60;99.90;;;;;;4955861;29;20046;-78
2023/11/17 01:20:05;;;;;;;6.80;4.43;;;3.60;99.90;;;;;;4908327;29;20044;-78
2023/11/17 01:22:51;;;;;;;10.25;3.90;;;3.70;99.90;;;;;;4923131;29;20365;-77
2023/11/17 01:25:37;;;;;;;5.60;3.58;;;3.70;99.90;;;;;;4931288;28;20043;-77
2023/11/17 01:28:23;;;;;;;5.22;3.40;;;3.70;99.90;;;;;;4963384;28;20082;-77
2023/11/17 01:31:11;;;;;;;5.78;3.83;;;3.70;99.90;;;;;;4936780;28;20039;-77
2023/11/17 01:33:58;;;;;;;8.98;4.18;;;3.70;99.90;;;;;;4931051;29;20050;-78
2023/11/17 01:36:44;;;;;;;8.85;4.30;;;3.80;99.90;;;;;;4927600;29;20468;-77
2023/11/17 01:39:31;;;;;;;7.07;4.18;;;3.80;99.90;;;;;;4929479;29;20043;-78
2023/11/17 01:42:19;;;;;;;7.25;3.80;;;3.80;99.90;;;;;;4941909;29;20350;-77
2023/11/17 01:45:10;;;;;;;6.65;4.18;;;3.80;99.90;;;;;;4958381;29;20050;-78
2023/11/17 01:47:56;;;;;;;8.27;3.97;;;3.70;99.90;;;;;;4957386;29;20031;-77
2023/11/17 01:50:42;;;;;;;11.13;4.88;;;3.80;99.90;;;;;;4918173;29;20051;-77
2023/11/17 01:53:29;;;;;;;7.72;3.83;;;3.70;99.90;;;;;;4923872;28;20039;-77
2023/11/17 01:56:15;;;;;;;8.68;4.47;;;3.80;99.90;;;;;;4950937;29;20349;-77
2023/11/17 01:59:04;;;;;;;8.73;4.57;;;3.80;99.90;;;;;;4927558;28;20073;-77
2023/11/17 02:01:50;;;;;;;;;;;3.80;99.90;;;;;;4945196;29;20471;-77
2023/11/17 02:04:37;;;;;;;7.88;4.20;;;3.80;99.90;;;;;;4930962;29;19911;-77
2023/11/17 02:07:32;;;;;;;6.97;3.80;;;3.80;99.90;;;;;;4924817;29;20370;-77
2023/11/17 02:10:33;;;;;;;6.38;3.53;;;3.80;99.90;;;;;;4920778;28;20039;-77
2023/11/17 02:14:00;;;;;;;5.18;3.20;;;3.90;99.90;;;;;;4945150;29;20039;-77
2023/11/17 02:16:47;;;;;;;6.20;3.80;;;3.90;99.90;;;;;;4947442;29;20690;-78
2023/11/17 02:19:52;;;;;;;5.43;3.60;;;3.80;99.90;;;;;;4940567;28;20046;-78
2023/11/17 02:22:44;;;;;;;7.53;3.75;;;3.80;99.90;;;;;;4944148;29;20053;-78
2023/11/17 02:26:21;;;;;;;5.10;3.40;;;3.70;99.90;;;;;;4933126;29;20040;-78
2023/11/17 02:29:37;;;;;;;6.30;3.50;;;3.70;99.90;;;;;;4909039;29;20137;-78
2023/11/17 02:32:24;;;;;;;5.30;3.50;;;3.70;99.90;;;;;;4930156;28;20985;-78
2023/11/17 02:35:10;;;;;;;5.70;3.67;;;3.60;99.90;;;;;;4903717;29;20045;-78
2023/11/17 02:38:00;;;;;;;4.07;2.92;;;3.40;99.90;;;;;;4929816;29;20039;-78
2023/11/17 02:40:46;;;;;;;5.78;3.30;;;3.40;99.90;;;;;;4922318;29;20130;-78
2023/11/17 02:43:32;;;;;;;7.68;3.95;;;3.30;99.90;;;;;;4919649;29;20039;-78
2023/11/17 02:46:22;;;;;;;5.63;3.53;;;3.30;99.90;;;;;;4925515;29;20464;-77
2023/11/17 02:49:17;;;;;;;4.82;3.17;;;3.20;99.90;;;;;;4928906;28;20043;-78
2023/11/17 02:52:08;;;;;;;5.65;3.40;;;3.30;99.90;;;;;;4943389;29;20043;-78
2023/11/17 02:54:55;;;;;;;3.72;2.75;;;3.30;99.90;;;;;;4942199;29;20039;-78
2023/11/17 02:57:44;;;;;;;5.35;3.17;;;3.40;99.90;;;;;;4941978;29;20126;-78
2023/11/17 03:00:31;;;;;;;6.53;3.38;;;3.30;99.90;;;;;;4929891;29;20043;-78
2023/11/17 03:03:22;;;;;;;5.40;3.25;;;3.30;99.90;;;;;;4913088;29;20162;-78
2023/11/17 03:06:09;;;;;;;5.32;3.40;;;3.30;99.90;;;;;;4923728;29;20040;-78
2023/11/17 03:08:57;;;;;;;3.73;2.90;;;3.40;99.90;;;;;;4941254;28;20077;-77
2023/11/17 03:11:47;;;;;;;5.45;3.33;;;3.40;99.90;;;;;;4929263;28;20046;-77
2023/11/17 03:14:35;;;;;;;4.60;3.10;;;3.40;99.90;;;;;;4937290;29;20049;-78
2023/11/17 03:17:21;;;;;;;6.40;3.17;;;3.40;99.90;;;;;;4924602;29;20035;-78
2023/11/17 03:20:14;;;;;;;4.60;3.38;;;3.40;99.90;;;;;;4933624;29;20035;-78
2023/11/17 03:23:00;;;;;;;5.45;3.55;;;3.50;99.90;;;;;;4928175;29;20047;-78
2023/11/17 03:25:46;;;;;;;5.32;3.30;;;3.50;99.90;;;;;;4921743;29;20043;-77
2023/11/17 03:28:35;;;;;;;8.13;3.38;;;3.50;99.90;;;;;;4925421;28;20054;-78
2023/11/17 03:31:21;;;;;;;6.28;3.75;;;3.50;99.90;;;;;;4948302;28;20054;-78
2023/11/17 03:34:09;;;;;;;7.90;4.22;;;3.60;99.90;;;;;;4936878;28;20045;-78
2023/11/17 03:36:56;;;;;;;5.72;3.95;;;3.50;99.90;;;;;;4958938;28;20148;-77
2023/11/17 03:39:42;;;;;;;8.30;3.90;;;3.50;99.90;;;;;;4939352;28;20430;-78
2023/11/17 03:42:28;;;;;;;6.57;3.95;;;3.50;99.90;;;;;;4935014;28;20085;-78
2023/11/17 03:45:15;;;;;;;6.38;3.70;;;3.50;99.90;;;;;;4930270;29;20032;-78
2023/11/17 03:48:01;;;;;;;6.40;4.47;;;3.60;99.90;;;;;;4927722;29;20552;-77
2023/11/17 03:50:48;;;;;;;6.25;4.28;;;3.60;99.90;;;;;;4931815;29;20582;-78
2023/11/17 03:53:35;;;;;;;7.63;4.77;;;3.60;99.90;;;;;;4945441;29;20035;-78
2023/11/17 03:56:21;;;;;;;8.15;4.43;;;3.60;99.90;;;;;;4926288;29;20040;-77
2023/11/17 03:59:13;;;;;;;7.45;4.50;;;3.60;99.90;;;;;;4925197;29;20050;-78
2023/11/17 04:01:59;;;;;;;8.32;4.55;;;3.60;99.90;;;;;;4945474;29;20089;-77
2023/11/17 04:04:45;;;;;;;7.30;4.75;;;3.60;99.90;;;;;;4946907;29;20039;-78
2023/11/17 04:07:31;;;;;;;8.35;5.07;;;3.60;99.90;;;;;;4913199;29;20499;-77
2023/11/17 04:10:19;;;;;;;8.68;4.80;;;3.70;99.90;;;;;;4917502;29;20357;-77
2023/11/17 04:13:05;;;;;;;6.38;4.60;;;3.70;99.90;;;;;;4939257;29;20130;-77
2023/11/17 04:15:51;;;;;;;7.65;4.80;;;3.70;99.90;;;;;;4917183;29;20032;-77
2023/11/17 04:18:39;;;;;;;7.97;4.28;;;3.70;99.90;;;;;;4901552;29;20036;-77
2023/11/17 04:21:25;;;;;;;7.45;4.68;;;3.70;99.90;;;;;;4901561;29;20039;-77
2023/11/17 04:24:11;;;;;;;8.45;4.97;;;3.70;99.90;;;;;;4942807;28;20051;-77
2023/11/17 04:26:57;;;;;;;7.75;4.85;;;3.70;99.90;;;;;;4919795;29;20490;-77
2023/11/17 04:29:43;;;;;;;8.82;5.13;;;3.70;99.90;;;;;;4932520;29;20100;-78
2023/11/17 04:32:29;;;;;;;8.45;5.35;;;3.80;99.90;;;;;;4939645;29;20051;-77
2023/11/17 04:35:15;;;;;;;8.07;4.88;;;3.70;99.90;;;;;;4914132;29;20039;-77
2023/11/17 04:38:01;;;;;;;9.13;5.03;;;3.80;99.90;;;;;;4921395;29;20039;-77
2023/11/17 04:40:47;;;;;;;9.18;5.25;;;3.80;99.90;;;;;;4920098;29;20130;-78
2023/11/17 04:43:33;;;;;;;9.60;5.43;;;3.80;99.90;;;;;;4931217;29;20065;-77
2023/11/17 04:46:19;;;;;;;7.82;4.18;;;3.80;99.90;;;;;;4944244;29;20376;-77
2023/11/17 04:49:05;;;;;;;6.50;3.95;;;3.80;99.90;;;;;;4920198;29;20031;-78
2023/11/17 04:51:51;;;;;;;7.53;4.32;;;3.80;99.90;;;;;;4945978;29;20125;-78
2023/11/17 04:54:37;;;;;;;8.25;4.38;;;3.90;99.90;;;;;;4925776;29;20032;-78
2023/11/17 04:57:23;;;;;;;7.85;4.25;;;3.80;99.90;;;;;;4913049;29;20048;-78
2023/11/17 05:00:13;;;;;;;10.23;4.55;;;3.90;99.90;;;;;;4942961;29;20115;-78
2023/11/17 05:03:00;;;;;;;6.90;4.10;;;3.90;99.90;;;;;;4913451;29;20167;-78
2023/11/17 05:05:48;;;;;;;8.15;4.57;;;3.90;99.90;;;;;;4925048;29;20042;-78
2023/11/17 05:08:37;;;;;;;8.20;4.90;;;4.00;99.90;;;;;;4925608;29;20062;-78
2023/11/17 05:11:27;;;;;;;7.10;4.85;;;3.90;99.90;;;;;;4924226;29;20044;-77
2023/11/17 05:14:13;;;;;;;8.63;4.88;;;4.00;99.90;;;;;;4925064;29;20465;-77
2023/11/17 05:17:06;;;;;;;7.75;5.15;;;3.90;99.90;;;;;;4912449;29;20044;-78
2023/11/17 05:19:52;;;;;;;9.90;5.68;;;4.00;99.90;;;;;;4938960;29;20035;-77
2023/11/17 05:22:42;;;;;;;11.27;5.50;;;4.00;99.90;;;;;;4931393;29;20395;-78
2023/11/17 05:25:28;;;;;;;9.80;5.97;;;4.00;99.90;;;;;;4930574;29;20054;-78
2023/11/17 05:28:14;;;;;;;9.00;5.75;;;4.00;99.90;;;;;;4945076;29;20053;-77
2023/11/17 05:31:02;;;;;;;8.80;6.18;;;4.00;99.90;;;;;;4931133;29;20050;-78
2023/11/17 05:33:48;;;;;;;11.85;6.15;;;4.10;99.90;;;;;;4943918;28;20041;-77
2023/11/17 05:36:39;;;;;;;13.30;6.40;;;4.10;99.90;;;;;;4960570;28;20039;-78
2023/11/17 05:39:26;;;;;;;9.30;5.65;;;4.10;99.90;;;;;;4938991;28;20475;-77
2023/11/17 05:42:13;;;;;;;10.63;5.53;;;4.10;99.90;;;;;;4927068;29;20055;-77
2023/11/17 05:44:59;;;;;;;14.40;5.37;;;4.10;99.90;;;;;;4952680;29;20529;-77
2023/11/17 05:47:45;;;;;;;11.35;5.60;;;4.10;99.90;;;;;;4930486;29;20043;-78
2023/11/17 05:50:31;;;;;;;10.05;5.72;;;4.20;99.90;;;;;;4912304;29;20042;-77
2023/11/17 05:53:17;;;;;;;10.70;6.43;;;4.20;99.90;;;;;;4910984;29;20040;-78
2023/11/17 05:56:06;;;;;;;10.55;5.97;;;4.20;99.90;;;;;;4923786;29;20062;-78
2023/11/17 05:58:52;;;;;;;12.90;6.15;;;4.20;99.90;;;;;;4939109;28;20032;-78
2023/11/17 06:01:40;;;;;;;11.32;6.50;;;4.30;99.90;;;;;;4948357;28;20042;-78
2023/11/17 06:04:28;;;;;;;12.50;5.93;;;4.30;99.90;;;;;;4912743;29;20039;-78
2023/11/17 06:07:14;;;;;;;10.90;5.85;;;4.30;99.90;;;;;;4912377;29;20052;-77
2023/11/17 06:10:00;;;;;;;7.07;5.05;;;4.40;99.90;;;;;;4923254;29;20036;-78
2023/11/17 06:12:47;;;;;;;10.82;5.82;;;4.40;99.90;;;;;;4927220;29;20054;-77
2023/11/17 06:15:34;;;;;;;10.30;5.03;;;4.40;99.90;;;;;;4945513;28;20464;-77
2023/11/17 06:18:21;;;;;;;9.23;6.28;;;4.40;99.90;;;;;;4916017;29;20067;-77
2023/11/17 06:21:07;;;;;;;7.77;5.13;;;4.40;99.90;;;;;;4911265;29;20039;-78
2023/11/17 06:23:53;;;;;;;9.73;5.10;;;4.40;99.90;;;;;;4916819;29;20051;-78
2023/11/17 06:26:40;;;;;;;8.48;5.13;;;4.50;99.90;;;;;;4949878;28;20035;-77
2023/11/17 06:29:26;;;;;;;9.27;5.35;;;4.50;99.90;;;;;;4950320;28;20043;-77
2023/11/17 06:32:12;;;;;;;8.02;5.47;;;4.50;99.90;;;;;;4917502;29;20476;-77
2023/11/17 06:34:58;;;;;;;8.40;4.95;;;4.50;99.90;;;;;;4931322;29;20039;-77
2023/11/17 06:37:44;;;;;;;8.85;5.60;;;4.60;99.90;;;;;;4917725;29;20126;-76
2023/11/17 06:40:30;;;;;;;10.18;6.60;;;4.60;99.90;;;;;;4919134;28;20121;-77
2023/11/17 06:43:16;;;;;;;14.85;5.82;;;4.60;99.90;;;;;;4950439;28;20125;-77
2023/11/17 06:46:02;;;;;;;9.52;5.13;;;4.60;99.90;;;;;;4950705;28;20108;-77
2023/11/17 06:48:48;;;;;;;9.73;5.97;;;4.60;99.90;;;;;;4962754;28;20103;-77
2023/11/17 06:51:40;;;;;;;10.00;5.47;;;4.60;99.90;;;;;;4956513;28;20113;-78
2023/11/17 06:54:27;;;;;;;9.73;4.85;;;4.70;99.90;;;;;;4953324;28;20042;-77
2023/11/17 06:57:14;;;;;;;11.50;5.15;;;4.70;99.90;;;;;;4967025;28;20039;-77
2023/11/17 07:00:00;;;;;;;7.13;3.97;;;4.70;99.90;;;;;;4951590;28;20035;-77
2023/11/17 07:02:48;;;;;;;11.63;5.35;;;4.70;99.90;;;;;;4943284;28;20079;-77
2023/11/17 07:05:34;;;;;;;7.78;5.00;;;4.60;99.90;;;;;;4954275;28;20046;-78
2023/11/17 07:08:21;;;;;;;7.60;4.43;;;4.70;99.90;;;;;;4934198;29;20062;-77
2023/11/17 07:11:10;;;;;;;8.27;4.75;;;4.70;99.90;;;;;;4964159;28;20035;-77
2023/11/17 07:14:01;;;;;;;9.23;4.63;;;4.70;99.90;;;;;;4947028;28;20506;-77
2023/11/17 07:16:50;;;;;;;8.68;4.95;;;4.70;99.90;;;;;;4954970;28;20479;-77
2023/11/17 07:19:37;;;;;;;7.15;4.55;;;4.60;99.90;;;;;;4961745;28;20125;-77
2023/11/17 07:22:23;;;;;;;8.30;4.85;;;4.70;99.90;;;;;;4947268;29;20050;-77
2023/11/17 07:25:13;;;;;;;8.65;4.47;;;4.70;99.90;;;;;;4946982;29;20039;-77
2023/11/17 07:27:59;;;;;;;7.38;4.43;;;4.70;99.90;;;;;;4921695;29;20031;-77
2023/11/17 07:30:47;;;;;;;6.75;4.40;;;4.70;99.90;;;;;;4934813;29;20039;-77
2023/11/17 07:33:33;;;;;;;8.38;4.93;;;4.70;99.90;;;;;;4933830;29;20562;-78
2023/11/17 07:36:19;;;;;;;9.52;5.18;;;4.70;99.90;;;;;;4948540;29;20031;-76
2023/11/17 07:39:06;;;;;;;10.35;5.07;;;4.70;99.90;;;;;;4941383;29;20035;-77
2023/11/17 07:41:54;;;;;;;9.93;5.00;;;4.80;99.90;;;;;;4952313;29;20372;-77
2023/11/17 07:44:41;;;;;;;16.33;5.30;;;4.80;99.90;;;;;;4945400;28;20813;-77
2023/11/17 07:47:27;;;;;;;7.13;5.10;;;4.80;99.90;;;;;;4940209;29;20035;-77
2023/11/17 07:50:13;;;;;;;8.55;5.38;;;4.80;99.90;;;;;;4931106;28;20161;-77
2023/11/17 07:53:01;;;;;;;9.07;4.85;;;4.90;99.90;;;;;;4965583;28;20125;-75
2023/11/17 07:55:49;;;;;;;6.97;4.55;;;4.90;99.90;;;;;;4926105;28;20039;-74
2023/11/17 07:58:35;;;;;;;8.80;4.80;;;4.90;99.90;;;;;;4913369;29;20042;-75
2023/11/17 08:01:23;;;;;;;9.30;5.57;;;4.90;99.90;;;;;;4927439;29;20834;-75
2023/11/17 08:04:09;;;;;;;8.18;5.43;;;4.90;99.90;;;;;;4927917;29;20047;-75
2023/11/17 08:06:55;;;;;;;7.80;4.72;;;5.00;99.90;;;;;;4954202;28;20090;-75
2023/11/17 08:09:43;;;;;;;9.30;5.15;;;5.00;99.90;;;;;;4950825;28;20035;-75
2023/11/17 08:12:29;;;;;;;10.05;5.15;;;5.00;99.90;;;;;;4937073;29;20126;-75
2023/11/17 08:15:20;;;;;;;9.65;4.90;;;5.00;99.90;;;;;;4945462;29;20066;-76
2023/11/17 08:18:08;;;;;;;9.65;4.68;;;5.10;99.90;;;;;;4946452;29;20035;-75
2023/11/17 08:20:54;;;;;;;8.35;4.32;;;5.10;99.90;;;;;;4943162;29;20054;-75
2023/11/17 08:23:42;;;;;;;9.98;5.10;;;5.10;99.90;;;;;;4925003;29;20567;-76
2023/11/17 08:26:31;;;;;;;9.90;4.75;;;5.10;99.90;;;;;;4945554;29;20056;-76
2023/11/17 08:29:18;;;;;;;8.60;4.57;;;5.10;99.90;;;;;;4932955;28;20115;-76
2023/11/17 08:32:05;;;;;;;10.90;4.40;;;5.20;99.90;;;;;;4952325;28;20050;-76
2023/11/17 08:34:52;;;;;;;10.95;4.78;;;5.20;99.90;;;;;;4923443;28;20120;-76
2023/11/17 08:37:40;;;;;;;7.50;4.53;;;5.20;99.90;;;;;;4938731;29;20035;-76
2023/11/17 08:40:26;;;;;;;11.02;4.32;;;5.20;99.90;;;;;;4934672;28;20346;-75
2023/11/17 08:43:18;;;;;;;7.15;4.25;;;5.30;99.90;;;;;;4927330;29;20042;-76
2023/11/17 08:46:06;;;;;;;9.15;4.53;;;5.30;99.90;;;;;;4931976;29;20606;-74
2023/11/17 08:48:54;;;;;;;9.30;4.82;;;5.30;99.90;;;;;;4943489;29;20078;-74
2023/11/17 08:51:42;;;;;;;8.77;3.95;;;5.40;99.90;;;;;;4958563;29;20050;-75
2023/11/17 08:54:28;;;;;;;7.55;3.65;;;5.40;99.90;;;;;;4925331;29;20040;-75
2023/11/17 08:57:17;;;;;;;8.57;4.05;;;5.40;99.90;;;;;;4935179;29;20031;-75
2023/11/17 09:00:18;;;;;;;11.30;3.90;;;5.50;99.90;;;;;;4946141;29;20507;-75
2023/11/17 09:03:04;;;;;;;12.18;4.88;;;5.60;99.90;;;;;;4931126;29;20071;-75
2023/11/17 09:05:51;;;;;;;11.07;4.15;;;5.60;99.90;;;;;;4912859;29;20043;-75
2023/11/17 09:08:38;;;;;;;7.68;3.92;;;5.70;99.90;;;;;;4957533;28;20035;-75
2023/11/17 09:11:25;;;;;;;6.78;4.05;;;5.70;99.90;;;;;;4942723;29;20122;-75
2023/11/17 09:14:11;;;;;;;10.50;4.15;;;5.80;99.90;;;;;;4926129;29;20054;-76
2023/11/17 09:17:01;;;;;;;6.63;3.33;;;5.80;99.90;;;;;;4939772;29;20039;-75
2023/11/17 09:19:47;;;;;;;7.80;3.65;;;5.80;99.90;;;;;;4903662;29;20038;-75
2023/11/17 09:22:33;;;;;;;7.43;3.90;;;5.80;99.90;;;;;;4932842;28;20468;-75
2023/11/17 09:25:22;;;;;;;7.55;3.72;;;5.80;99.90;;;;;;4926331;29;20039;-74
2023/11/17 09:28:08;;;;;;;9.75;3.90;;;5.80;99.90;;;;;;4932715;29;20043;-75
2023/11/17 09:30:56;;;;;;;7.35;3.80;;;5.90;99.90;;;;;;4939399;29;20047;-75
2023/11/17 09:33:44;;;;;;;6.10;3.80;;;5.90;99.90;;;;;;4943171;29;19914;-75
2023/11/17 09:36:30;;;;;;;6.53;3.67;;;5.90;99.90;;;;;;4931109;29;20070;-75
2023/11/17 09:39:17;;;;;;;7.25;3.72;;;6.00;99.90;;;;;;4943157;29;20380;-74
2023/11/17 09:42:07;;;;;;;6.82;3.90;;;6.00;99.90;;;;;;4955266;28;20488;-75
2023/11/17 09:44:55;;;;;;;6.35;3.78;;;6.00;99.90;;;;;;4927507;29;20039;-75
2023/11/17 09:47:41;;;;;;;7.65;3.33;;;6.00;99.90;;;;;;4930446;29;20047;-75
2023/11/17 09:50:28;;;;;;;8.48;3.58;;;6.00;99.90;;;;;;4918743;29;20106;-75
2023/11/17 09:53:17;;;;;;;6.90;4.13;;;6.00;99.90;;;;;;4928953;29;20047;-75
2023/11/17 09:56:04;;;;;;;12.38;6.30;;;6.00;99.90;;;;;;4924885;29;20118;-75
2023/11/17 09:58:53;;;;;;;12.35;5.55;;;6.00;99.90;;;;;;4925513;29;20342;-74
2023/11/17 10:01:39;;;;;;;6.55;4.03;;;6.10;99.90;;;;;;4911749;28;20540;-74
2023/11/17 10:04:25;;;;;;;7.40;4.20;;;6.10;99.90;;;;;;4921819;29;20090;-75
2023/11/17 10:07:11;;;;;;;5.80;3.72;;;6.10;99.90;;;;;;4936704;28;20097;-75
2023/11/17 10:09:57;;;;;;;10.18;4.13;;;6.10;99.90;;;;;;4930889;29;20151;-75
2023/11/17 10:12:44;;;;;;;6.28;3.78;;;6.10;99.90;;;;;;4943084;29;20039;-75
2023/11/17 10:15:31;;;;;;;6.20;3.50;;;6.20;99.90;;;;;;4926634;29;20075;-75
2023/11/17 10:18:18;;;;;;;10.47;4.60;;;6.20;99.90;;;;;;4914444;29;20039;-74
2023/11/17 10:21:05;;;;;;;8.25;4.78;;;6.30;99.90;;;;;;4938288;28;20043;-75
2023/11/17 10:23:53;;;;;;;7.40;4.10;;;6.30;99.90;;;;;;4937682;28;20060;-75
2023/11/17 10:26:40;;;;;;;6.32;4.07;;;6.40;99.90;;;;;;4955684;28;20463;-75
2023/11/17 10:29:26;;;;;;;8.80;3.50;;;6.40;99.90;;;;;;4965731;28;20054;-75
2023/11/17 10:32:14;;;;;;;6.55;3.42;;;6.50;99.90;;;;;;4965808;28;20077;-75
2023/11/17 10:35:16;;;;;;;6.80;3.45;;;6.50;99.90;;;;;;4939382;28;20093;-74
2023/11/17 10:38:05;;;;;;;6.72;3.55;;;6.60;99.90;;;;;;4950332;28;20035;-74
2023/11/17 10:40:53;;;;;;;9.55;4.00;;;6.70;99.90;;;;;;4967591;28;20045;-75
2023/11/17 10:43:53;;;;;;;6.18;3.42;;;6.70;99.90;;;;;;4942417;29;20186;-74
2023/11/17 10:46:40;;;;;;;10.35;3.90;;;6.70;99.90;;;;;;4929858;28;20047;-74
2023/11/17 10:49:29;;;;;;;7.88;3.67;;;6.70;99.90;;;;;;4943154;28;20534;-75
2023/11/17 10:52:35;;;;;;;6.85;3.10;;;6.70;99.90;;;;;;4947024;28;20050;-78
2023/11/17 10:55:33;;;;;;;4.63;3.22;;;6.70;99.90;;;;;;4943030;28;20054;-74
2023/11/17 10:58:20;;;;;;;9.85;3.67;;;6.80;99.90;;;;;;4935527;28;20035;-75
2023/11/17 11:01:14;;;;;;;6.57;3.45;;;6.80;99.90;;;;;;4949017;28;20049;-76
2023/11/17 11:04:00;;;;;;;6.30;3.38;;;6.80;99.90;;;;;;4930855;29;20047;-76
2023/11/17 11:06:46;;;;;;;6.53;3.33;;;6.80;99.90;;;;;;4931254;29;20118;-74
2023/11/17 11:09:37;;;;;;;5.57;3.08;;;6.80;99.90;;;;;;4943299;28;20039;-74
2023/11/17 11:12:23;;;;;;;6.70;2.97;;;6.80;99.90;;;;;;4918421;29;20043;-75
2023/11/17 11:15:16;;;;;;;11.23;3.00;;;6.80;99.90;;;;;;4917576;29;20043;-75
2023/11/17 11:18:06;;;;;;;6.65;2.50;;;6.80;99.90;;;;;;4951313;28;20035;-76
2023/11/17 11:20:54;;;;;;;9.02;2.90;;;6.80;99.90;;;;;;4950357;28;20038;-75
2023/11/17 11:23:40;;;;;;;8.57;3.05;;;6.90;99.90;;;;;;4937188;29;20059;-76
2023/11/17 11:26:27;;;;;;;6.78;3.28;;;6.90;99.90;;;;;;4916004;29;20047;-76
2023/11/17 11:29:13;;;;;;;5.38;2.72;;;7.00;99.90;;;;;;4928159;29;20043;-76
2023/11/17 11:32:01;;;;;;;5.07;3.15;;;6.90;99.90;;;;;;4918260;28;20043;-76
2023/11/17 11:34:48;;;;;;;5.87;2.80;;;6.90;99.90;;;;;;4930038;29;20048;-75
2023/11/17 11:37:34;;;;;;;8.73;2.88;;;6.90;99.90;;;;;;4943798;29;20271;-75
2023/11/17 11:40:22;;;;;;;5.97;2.47;;;6.80;99.90;;;;;;4944204;28;20034;-76
2023/11/17 11:43:10;;;;;;;6.03;2.30;;;6.90;99.90;;;;;;4925801;29;20044;-75
2023/11/17 11:45:59;;;;;;;4.82;2.80;;;7.00;99.90;;;;;;4922962;28;20042;-76
2023/11/17 11:48:51;;;;;;;4.65;2.38;;;7.10;99.90;;;;;;4948209;28;20496;-76
2023/11/17 11:51:57;;;;;;;5.18;2.80;;;7.20;99.90;;;;;;4934423;28;20083;-76
2023/11/17 11:54:44;;;;;;;5.15;2.63;;;7.50;99.90;;;;;;4939067;28;20050;-76
2023/11/17 11:57:32;;;;;;;4.13;2.47;;;8.10;99.90;;;;;;4927174;29;20044;-76
2023/11/17 12:00:19;;;;;;;5.45;2.53;;;8.80;99.90;;;;;;4913744;29;20042;-76
2023/11/17 12:03:07;;;;;;;4.53;2.80;;;9.20;99.90;;;;;;4921054;29;20118;-75
2023/11/17 12:05:54;;;;;;;4.03;2.47;;;9.90;99.90;;;;;;4938824;29;20035;-75
2023/11/17 12:08:42;;;;;;;5.25;2.40;;;9.80;99.90;;;;;;4932468;29;20935;-76
2023/11/17 12:11:42;;;;;;;6.90;2.80;;;10.10;99.90;;;;;;4943659;29;20138;-76
2023/11/17 12:14:36;;;;;;;3.28;2.00;;;10.30;99.90;;;;;;4934212;29;20067;-75
2023/11/17 12:17:30;;;;;;;3.88;2.28;;;10.00;99.90;;;;;;4933026;29;20027;-75
2023/11/17 12:20:29;;;;;;;4.80;2.42;;;9.70;99.90;;;;;;4954271;28;20035;-75
2023/11/17 12:23:18;;;;;;;4.22;2.35;;;9.60;99.90;;;;;;4944724;28;20043;-76
2023/11/17 12:26:05;;;;;;;5.13;2.10;;;9.40;99.90;;;;;;4950706;28;20133;-76
2023/11/17 12:28:54;;;;;;;4.15;2.30;;;9.60;99.90;;;;;;4921253;29;20539;-75
2023/11/17 12:31:41;;;;;;;3.42;2.05;;;9.00;99.90;;;;;;4944386;29;20043;-75
2023/11/17 12:34:27;;;;;;;3.95;2.67;;;8.50;99.90;;;;;;4945067;29;20050;-76
2023/11/17 12:37:14;;;;;;;3.97;2.50;;;8.40;99.90;;;;;;4933532;29;20039;-75
2023/11/17 12:40:12;;;;;;;4.28;2.35;;;8.20;99.90;;;;;;4934004;28;20201;-76
2023/11/17 12:42:59;;;;;;;4.95;2.47;;;8.20;99.90;;;;;;4916985;28;20035;-75
2023/11/17 12:45:45;;;;;;;6.78;2.67;;;8.30;99.90;;;;;;4951237;28;20036;-75
2023/11/17 12:48:35;;;;;;;5.88;2.83;;;8.00;99.90;;;;;;4931038;29;20043;-74
2023/11/17 12:51:29;;;;;;;5.78;2.47;;;7.90;99.90;;;;;;4912891;29;20047;-73
2023/11/17 12:54:16;;;;;;;6.10;2.30;;;7.90;99.90;;;;;;4922296;29;20116;-73
2023/11/17 12:57:02;;;;;;;5.93;2.58;;;7.90;99.90;;;;;;4926350;28;20051;-73
2023/11/17 12:59:49;;;;;;;3.55;2.17;;;7.70;99.90;;;;;;4948424;29;20031;-73
2023/11/17 13:02:35;;;;;;;4.78;2.35;;;7.60;99.90;;;;;;4919715;29;20047;-73
2023/11/17 13:05:22;;;;;;;4.22;2.40;;;7.60;99.90;;;;;;4944432;29;20475;-73
2023/11/17 13:08:08;;;;;;;5.40;2.45;;;7.50;99.90;;;;;;4919479;29;20506;-74
2023/11/17 13:10:56;;;;;;;4.70;2.33;;;7.40;99.90;;;;;;4930321;29;20121;-73
2023/11/17 13:13:51;;;;;;;6.05;2.70;;;7.40;99.90;;;;;;4918677;29;20052;-73
2023/11/17 13:16:41;;;;;;;3.92;2.65;;;7.40;99.90;;;;;;4926468;28;20674;-76
2023/11/17 13:19:29;;;;;;;5.50;2.80;;;7.30;99.90;;;;;;4923338;29;20472;-76
2023/11/17 13:22:16;;;;;;;6.05;2.80;;;7.20;99.90;;;;;;4940855;29;20093;-76
2023/11/17 13:25:07;;;;;;;5.67;2.23;;;7.20;99.90;;;;;;4923774;29;20375;-75
2023/11/17 13:27:53;;;;;;;3.78;2.40;;;7.20;99.90;;;;;;4934525;29;20278;-75
2023/11/17 13:30:40;;;;;;;4.38;2.60;;;7.20;99.90;;;;;;4931613;28;20460;-75
2023/11/17 13:33:37;;;;;;;4.57;2.20;;;7.20;99.90;;;;;;4933414;28;20101;-76
2023/11/17 13:36:35;;;;;;;3.90;2.03;;;7.10;99.90;;;;;;4907669;29;20040;-76
2023/11/17 13:39:21;;;;;;;4.90;2.50;;;7.10;99.90;;;;;;4940927;29;20202;-76
2023/11/17 13:42:10;;;;;;;4.10;1.98;;;7.10;99.90;;;;;;4943977;29;20038;-76
2023/11/17 13:44:56;;;;;;;3.80;2.13;;;7.10;99.90;;;;;;4927603;28;20038;-76
2023/11/17 13:47:45;;;;;;;6.93;2.67;;;7.00;99.90;;;;;;4914671;29;20048;-75
2023/11/17 13:50:39;;;;;;;9.25;3.17;;;7.10;99.90;;;;;;4927602;28;20031;-75
2023/11/17 13:53:29;;;;;;;10.63;3.30;;;7.10;99.90;;;;;;4913105;29;20519;-75
2023/11/17 13:56:17;;;;;;;4.25;2.33;;;7.00;99.90;;;;;;4925337;29;20109;-76
2023/11/17 13:59:04;;;;;;;5.07;2.20;;;7.00;99.90;;;;;;4924851;29;20039;-76
2023/11/17 14:01:58;;;;;;;4.57;2.28;;;7.00;99.90;;;;;;4912830;29;20433;-76
2023/11/17 14:04:44;;;;;;;4.88;2.30;;;7.00;99.90;;;;;;4939764;29;20769;-76
2023/11/17 14:07:30;;;;;;;4.95;2.42;;;7.00;99.90;;;;;;4943345;28;20039;-76
2023/11/17 14:10:17;;;;;;;7.60;3.00;;;7.00;99.90;;;;;;4941345;29;20054;-75
2023/11/17 14:13:04;;;;;;;7.65;2.58;;;7.00;99.90;;;;;;4930499;29;20039;-76
2023/11/17 14:15:52;;;;;;;3.97;2.35;;;7.00;99.90;;;;;;4913821;29;20448;-76
2023/11/17 14:18:41;;;;;;;3.13;2.20;;;7.00;99.90;;;;;;4912949;29;20031;-76
2023/11/17 14:21:28;;;;;;;5.35;2.28;;;7.00;99.90;;;;;;4925783;29;20792;-76
2023/11/17 14:24:20;;;;;;;3.53;2.47;;;7.00;99.90;;;;;;4911975;29;20111;-76
2023/11/17 14:27:07;;;;;;;4.20;2.53;;;7.00;99.90;;;;;;4938162;29;20118;-77
2023/11/17 14:29:54;;;;;;;4.63;2.58;;;7.00;99.90;;;;;;4937247;29;20408;-76
2023/11/17 14:32:42;;;;;;;4.57;2.63;;;7.00;99.90;;;;;;4955312;28;20039;-77
2023/11/17 14:35:28;;;;;;;7.60;3.05;;;6.90;99.90;;;;;;4927466;29;20039;-76
2023/11/17 14:38:16;;;;;;;6.15;3.15;;;6.90;99.90;;;;;;4928577;29;20049;-77
2023/11/17 14:41:04;;;;;;;5.18;3.60;;;6.90;99.90;;;;;;4944018;29;20035;-77
2023/11/17 14:43:50;;;;;;;5.97;2.60;;;7.00;99.90;;;;;;4943330;29;20039;-77
2023/11/17 14:46:36;;;;;;;6.20;3.00;;;7.00;99.90;;;;;;4929461;29;20274;-77